sensor_id;sensor_type;location;lat;lon;timestamp;P1;durP1;ratioP1;P2;durP2;ratioP2
20870;SDS011;10595;51.218;3.452;2023-09-30T00:01:39;14.40;;;8.33;;
20870;SDS011;10595;51.218;3.452;2023-09-30T00:04:05;18.43;;;8.60;;
20870;SDS011;10595;51.218;3.452;2023-09-30T00:06:32;15.73;;;9.57;;
20870;SDS011;10595;51.218;3.452;2023-09-30T00:08:58;18.53;;;9.13;;
20870;SDS011;10595;51.218;3.452;2023-09-30T00:11:24;23.47;;;10.10;;
20870;SDS011;10595;51.218;3.452;2023-09-30T00:13:50;18.57;;;9.43;;
20870;SDS011;10595;51.218;3.452;2023-09-30T00:16:16;22.83;;;9.07;;
20870;SDS011;10595;51.218;3.452;2023-09-30T00:18:43;18.20;;;9.83;;
20870;SDS011;10595;51.218;3.452;2023-09-30T00:21:09;20.97;;;10.20;;
20870;SDS011;10595;51.218;3.452;2023-09-30T00:23:36;16.63;;;9.50;;
20870;SDS011;10595;51.218;3.452;2023-09-30T00:26:02;16.60;;;9.40;;
20870;SDS011;10595;51.218;3.452;2023-09-30T00:28:28;17.37;;;9.37;;
20870;SDS011;10595;51.218;3.452;2023-09-30T00:30:54;17.47;;;8.97;;
20870;SDS011;10595;51.218;3.452;2023-09-30T00:33:20;20.30;;;8.93;;
20870;SDS011;10595;51.218;3.452;2023-09-30T00:35:46;18.20;;;8.97;;
20870;SDS011;10595;51.218;3.452;2023-09-30T00:38:12;21.27;;;10.03;;
20870;SDS011;10595;51.218;3.452;2023-09-30T00:40:39;22.23;;;9.40;;
20870;SDS011;10595;51.218;3.452;2023-09-30T00:43:05;21.60;;;9.83;;
20870;SDS011;10595;51.218;3.452;2023-09-30T00:45:31;26.40;;;10.17;;
20870;SDS011;10595;51.218;3.452;2023-09-30T00:47:57;27.93;;;10.47;;
20870;SDS011;10595;51.218;3.452;2023-09-30T00:50:23;23.80;;;10.10;;
20870;SDS011;10595;51.218;3.452;2023-09-30T00:52:49;19.50;;;8.30;;
20870;SDS011;10595;51.218;3.452;2023-09-30T00:55:16;19.60;;;9.77;;
20870;SDS011;10595;51.218;3.452;2023-09-30T00:57:43;19.23;;;9.20;;
20870;SDS011;10595;51.218;3.452;2023-09-30T01:00:09;17.17;;;8.50;;
20870;SDS011;10595;51.218;3.452;2023-09-30T01:02:37;19.93;;;9.03;;
20870;SDS011;10595;51.218;3.452;2023-09-30T01:05:04;14.93;;;8.03;;
20870;SDS011;10595;51.218;3.452;2023-09-30T01:07:30;16.73;;;8.80;;
20870;SDS011;10595;51.218;3.452;2023-09-30T01:09:56;19.93;;;8.90;;
20870;SDS011;10595;51.218;3.452;2023-09-30T01:12:22;17.00;;;8.10;;
20870;SDS011;10595;51.218;3.452;2023-09-30T01:14:48;15.53;;;8.07;;
20870;SDS011;10595;51.218;3.452;2023-09-30T01:17:14;16.83;;;8.33;;
20870;SDS011;10595;51.218;3.452;2023-09-30T01:19:40;20.70;;;8.93;;
20870;SDS011;10595;51.218;3.452;2023-09-30T01:22:09;17.77;;;8.20;;
20870;SDS011;10595;51.218;3.452;2023-09-30T01:24:39;16.67;;;8.00;;
20870;SDS011;10595;51.218;3.452;2023-09-30T01:27:06;17.03;;;7.97;;
20870;SDS011;10595;51.218;3.452;2023-09-30T01:29:32;18.80;;;8.17;;
20870;SDS011;10595;51.218;3.452;2023-09-30T01:31:58;12.47;;;8.17;;
20870;SDS011;10595;51.218;3.452;2023-09-30T01:34:24;16.03;;;7.67;;
20870;SDS011;10595;51.218;3.452;2023-09-30T01:36:50;16.93;;;8.00;;
20870;SDS011;10595;51.218;3.452;2023-09-30T01:39:16;14.80;;;7.70;;
20870;SDS011;10595;51.218;3.452;2023-09-30T01:41:42;16.27;;;7.90;;
20870;SDS011;10595;51.218;3.452;2023-09-30T01:44:08;16.13;;;8.00;;
20870;SDS011;10595;51.218;3.452;2023-09-30T01:46:34;16.90;;;7.47;;
20870;SDS011;10595;51.218;3.452;2023-09-30T01:49:01;14.03;;;7.87;;
20870;SDS011;10595;51.218;3.452;2023-09-30T01:51:28;14.33;;;7.83;;
20870;SDS011;10595;51.218;3.452;2023-09-30T01:53:55;14.23;;;7.57;;
20870;SDS011;10595;51.218;3.452;2023-09-30T01:56:21;21.73;;;8.53;;
20870;SDS011;10595;51.218;3.452;2023-09-30T01:58:47;26.47;;;9.37;;
20870;SDS011;10595;51.218;3.452;2023-09-30T02:01:13;17.47;;;8.87;;
20870;SDS011;10595;51.218;3.452;2023-09-30T02:03:39;16.33;;;8.70;;
20870;SDS011;10595;51.218;3.452;2023-09-30T02:06:05;20.23;;;8.33;;
20870;SDS011;10595;51.218;3.452;2023-09-30T02:08:31;13.70;;;7.33;;
20870;SDS011;10595;51.218;3.452;2023-09-30T02:10:57;11.37;;;6.97;;
20870;SDS011;10595;51.218;3.452;2023-09-30T02:13:23;12.93;;;6.87;;
20870;SDS011;10595;51.218;3.452;2023-09-30T02:15:49;12.07;;;6.57;;
20870;SDS011;10595;51.218;3.452;2023-09-30T02:18:16;9.17;;;5.83;;
20870;SDS011;10595;51.218;3.452;2023-09-30T02:20:42;11.77;;;7.07;;
20870;SDS011;10595;51.218;3.452;2023-09-30T02:23:10;12.40;;;6.83;;
20870;SDS011;10595;51.218;3.452;2023-09-30T02:25:36;15.27;;;8.20;;
20870;SDS011;10595;51.218;3.452;2023-09-30T02:28:02;11.20;;;6.80;;
20870;SDS011;10595;51.218;3.452;2023-09-30T02:30:29;10.53;;;6.20;;
20870;SDS011;10595;51.218;3.452;2023-09-30T02:32:56;14.57;;;7.00;;
20870;SDS011;10595;51.218;3.452;2023-09-30T02:35:22;11.93;;;6.63;;
20870;SDS011;10595;51.218;3.452;2023-09-30T02:37:48;11.53;;;7.40;;
20870;SDS011;10595;51.218;3.452;2023-09-30T02:40:15;10.57;;;6.67;;
20870;SDS011;10595;51.218;3.452;2023-09-30T02:42:42;13.50;;;7.67;;
20870;SDS011;10595;51.218;3.452;2023-09-30T02:45:08;18.03;;;7.93;;
20870;SDS011;10595;51.218;3.452;2023-09-30T02:47:35;19.03;;;8.50;;
20870;SDS011;10595;51.218;3.452;2023-09-30T02:50:02;24.07;;;8.57;;
20870;SDS011;10595;51.218;3.452;2023-09-30T02:52:29;17.37;;;8.10;;
20870;SDS011;10595;51.218;3.452;2023-09-30T02:54:56;17.43;;;7.57;;
20870;SDS011;10595;51.218;3.452;2023-09-30T02:57:22;17.90;;;8.53;;
20870;SDS011;10595;51.218;3.452;2023-09-30T02:59:48;13.97;;;6.80;;
20870;SDS011;10595;51.218;3.452;2023-09-30T03:02:14;17.40;;;7.60;;
20870;SDS011;10595;51.218;3.452;2023-09-30T03:04:40;18.20;;;8.37;;
20870;SDS011;10595;51.218;3.452;2023-09-30T03:07:07;50.47;;;9.83;;
20870;SDS011;10595;51.218;3.452;2023-09-30T03:09:34;19.47;;;8.07;;
20870;SDS011;10595;51.218;3.452;2023-09-30T03:12:01;21.00;;;8.23;;
20870;SDS011;10595;51.218;3.452;2023-09-30T03:14:27;15.10;;;7.40;;
20870;SDS011;10595;51.218;3.452;2023-09-30T03:16:56;26.53;;;9.70;;
20870;SDS011;10595;51.218;3.452;2023-09-30T03:19:22;18.73;;;8.30;;
20870;SDS011;10595;51.218;3.452;2023-09-30T03:21:48;14.33;;;7.27;;
20870;SDS011;10595;51.218;3.452;2023-09-30T03:24:14;64.17;;;7.63;;
20870;SDS011;10595;51.218;3.452;2023-09-30T03:26:40;11.40;;;5.67;;
20870;SDS011;10595;51.218;3.452;2023-09-30T03:29:06;11.07;;;5.03;;
20870;SDS011;10595;51.218;3.452;2023-09-30T03:31:34;12.13;;;5.43;;
20870;SDS011;10595;51.218;3.452;2023-09-30T03:34:00;13.83;;;6.40;;
20870;SDS011;10595;51.218;3.452;2023-09-30T03:36:26;10.03;;;5.17;;
20870;SDS011;10595;51.218;3.452;2023-09-30T03:38:52;12.23;;;4.53;;
20870;SDS011;10595;51.218;3.452;2023-09-30T03:41:23;11.60;;;5.53;;
20870;SDS011;10595;51.218;3.452;2023-09-30T03:43:50;8.23;;;5.00;;
20870;SDS011;10595;51.218;3.452;2023-09-30T03:46:16;13.33;;;6.20;;
20870;SDS011;10595;51.218;3.452;2023-09-30T03:48:42;13.50;;;6.27;;
20870;SDS011;10595;51.218;3.452;2023-09-30T03:53:39;14.63;;;7.03;;
20870;SDS011;10595;51.218;3.452;2023-09-30T03:56:05;13.17;;;6.40;;
20870;SDS011;10595;51.218;3.452;2023-09-30T03:58:31;14.80;;;7.10;;
20870;SDS011;10595;51.218;3.452;2023-09-30T04:00:57;14.43;;;6.53;;
20870;SDS011;10595;51.218;3.452;2023-09-30T04:03:23;12.93;;;6.83;;
20870;SDS011;10595;51.218;3.452;2023-09-30T04:05:49;15.33;;;7.10;;
20870;SDS011;10595;51.218;3.452;2023-09-30T04:08:15;11.37;;;6.43;;
20870;SDS011;10595;51.218;3.452;2023-09-30T04:10:42;15.43;;;7.40;;
20870;SDS011;10595;51.218;3.452;2023-09-30T04:13:09;14.43;;;5.73;;
20870;SDS011;10595;51.218;3.452;2023-09-30T04:15:36;39.70;;;6.43;;
20870;SDS011;10595;51.218;3.452;2023-09-30T04:18:02;20.10;;;5.67;;
20870;SDS011;10595;51.218;3.452;2023-09-30T04:20:30;11.07;;;5.57;;
20870;SDS011;10595;51.218;3.452;2023-09-30T04:22:56;13.43;;;6.30;;
20870;SDS011;10595;51.218;3.452;2023-09-30T04:25:22;27.93;;;8.17;;
20870;SDS011;10595;51.218;3.452;2023-09-30T04:27:52;20.67;;;9.93;;
20870;SDS011;10595;51.218;3.452;2023-09-30T04:30:18;22.77;;;10.10;;
20870;SDS011;10595;51.218;3.452;2023-09-30T04:32:44;20.07;;;10.40;;
20870;SDS011;10595;51.218;3.452;2023-09-30T04:35:10;27.93;;;11.33;;
20870;SDS011;10595;51.218;3.452;2023-09-30T04:37:37;24.40;;;11.57;;
20870;SDS011;10595;51.218;3.452;2023-09-30T04:40:12;33.13;;;14.07;;
20870;SDS011;10595;51.218;3.452;2023-09-30T04:42:44;21.47;;;12.30;;
20870;SDS011;10595;51.218;3.452;2023-09-30T04:45:11;34.37;;;14.47;;
20870;SDS011;10595;51.218;3.452;2023-09-30T04:47:38;26.07;;;13.73;;
20870;SDS011;10595;51.218;3.452;2023-09-30T04:50:07;31.43;;;15.30;;
20870;SDS011;10595;51.218;3.452;2023-09-30T04:52:33;28.47;;;13.27;;
20870;SDS011;10595;51.218;3.452;2023-09-30T04:55:00;31.90;;;14.87;;
20870;SDS011;10595;51.218;3.452;2023-09-30T04:57:26;31.43;;;15.50;;
20870;SDS011;10595;51.218;3.452;2023-09-30T04:59:53;33.13;;;14.17;;
20870;SDS011;10595;51.218;3.452;2023-09-30T05:02:20;26.30;;;14.13;;
20870;SDS011;10595;51.218;3.452;2023-09-30T05:04:46;32.07;;;14.33;;
20870;SDS011;10595;51.218;3.452;2023-09-30T05:07:12;25.87;;;12.93;;
20870;SDS011;10595;51.218;3.452;2023-09-30T05:09:38;25.93;;;13.90;;
20870;SDS011;10595;51.218;3.452;2023-09-30T05:12:04;42.33;;;15.77;;
20870;SDS011;10595;51.218;3.452;2023-09-30T05:14:31;26.33;;;12.93;;
20870;SDS011;10595;51.218;3.452;2023-09-30T05:16:58;28.97;;;14.03;;
20870;SDS011;10595;51.218;3.452;2023-09-30T05:19:24;25.10;;;12.43;;
20870;SDS011;10595;51.218;3.452;2023-09-30T05:21:50;28.50;;;13.70;;
20870;SDS011;10595;51.218;3.452;2023-09-30T05:24:17;39.87;;;14.57;;
20870;SDS011;10595;51.218;3.452;2023-09-30T05:26:44;23.43;;;13.10;;
20870;SDS011;10595;51.218;3.452;2023-09-30T05:29:10;24.37;;;12.40;;
20870;SDS011;10595;51.218;3.452;2023-09-30T05:31:36;37.17;;;15.70;;
20870;SDS011;10595;51.218;3.452;2023-09-30T05:34:03;30.73;;;15.23;;
20870;SDS011;10595;51.218;3.452;2023-09-30T05:36:29;41.17;;;18.20;;
20870;SDS011;10595;51.218;3.452;2023-09-30T05:38:55;28.07;;;14.83;;
20870;SDS011;10595;51.218;3.452;2023-09-30T05:41:22;32.53;;;15.13;;
20870;SDS011;10595;51.218;3.452;2023-09-30T05:43:49;30.57;;;15.43;;
20870;SDS011;10595;51.218;3.452;2023-09-30T05:46:15;38.37;;;16.97;;
20870;SDS011;10595;51.218;3.452;2023-09-30T05:48:41;30.47;;;15.73;;
20870;SDS011;10595;51.218;3.452;2023-09-30T05:51:08;37.63;;;16.67;;
20870;SDS011;10595;51.218;3.452;2023-09-30T05:53:34;32.10;;;16.33;;
20870;SDS011;10595;51.218;3.452;2023-09-30T05:56:01;28.47;;;15.13;;
20870;SDS011;10595;51.218;3.452;2023-09-30T05:58:27;34.70;;;16.90;;
20870;SDS011;10595;51.218;3.452;2023-09-30T06:00:53;34.60;;;15.87;;
20870;SDS011;10595;51.218;3.452;2023-09-30T06:03:19;35.43;;;16.77;;
20870;SDS011;10595;51.218;3.452;2023-09-30T06:05:48;33.47;;;15.83;;
20870;SDS011;10595;51.218;3.452;2023-09-30T06:08:14;28.83;;;15.47;;
20870;SDS011;10595;51.218;3.452;2023-09-30T06:10:40;33.33;;;15.83;;
20870;SDS011;10595;51.218;3.452;2023-09-30T06:13:10;32.77;;;16.13;;
20870;SDS011;10595;51.218;3.452;2023-09-30T06:15:37;32.73;;;16.23;;
20870;SDS011;10595;51.218;3.452;2023-09-30T06:18:06;35.87;;;16.53;;
20870;SDS011;10595;51.218;3.452;2023-09-30T06:20:33;30.33;;;16.40;;
20870;SDS011;10595;51.218;3.452;2023-09-30T06:22:59;33.17;;;15.93;;
20870;SDS011;10595;51.218;3.452;2023-09-30T06:25:25;40.60;;;17.90;;
20870;SDS011;10595;51.218;3.452;2023-09-30T06:27:52;43.63;;;18.57;;
20870;SDS011;10595;51.218;3.452;2023-09-30T06:30:20;40.93;;;18.93;;
20870;SDS011;10595;51.218;3.452;2023-09-30T06:32:46;43.73;;;20.03;;
20870;SDS011;10595;51.218;3.452;2023-09-30T06:35:12;44.27;;;19.47;;
20870;SDS011;10595;51.218;3.452;2023-09-30T06:37:39;39.27;;;19.97;;
20870;SDS011;10595;51.218;3.452;2023-09-30T06:40:06;43.30;;;20.37;;
20870;SDS011;10595;51.218;3.452;2023-09-30T06:42:33;43.80;;;21.83;;
20870;SDS011;10595;51.218;3.452;2023-09-30T06:45:00;65.47;;;23.93;;
20870;SDS011;10595;51.218;3.452;2023-09-30T06:47:26;59.90;;;24.00;;
20870;SDS011;10595;51.218;3.452;2023-09-30T06:49:52;46.17;;;22.20;;
20870;SDS011;10595;51.218;3.452;2023-09-30T06:52:18;47.27;;;21.83;;
20870;SDS011;10595;51.218;3.452;2023-09-30T06:54:45;72.70;;;24.90;;
20870;SDS011;10595;51.218;3.452;2023-09-30T06:57:11;49.77;;;23.03;;
20870;SDS011;10595;51.218;3.452;2023-09-30T06:59:37;48.13;;;21.27;;
20870;SDS011;10595;51.218;3.452;2023-09-30T07:02:03;42.07;;;20.93;;
20870;SDS011;10595;51.218;3.452;2023-09-30T07:04:29;38.53;;;19.87;;
20870;SDS011;10595;51.218;3.452;2023-09-30T07:06:55;51.60;;;22.17;;
20870;SDS011;10595;51.218;3.452;2023-09-30T07:09:21;50.63;;;21.27;;
20870;SDS011;10595;51.218;3.452;2023-09-30T07:11:47;41.57;;;20.20;;
20870;SDS011;10595;51.218;3.452;2023-09-30T07:14:14;44.03;;;21.60;;
20870;SDS011;10595;51.218;3.452;2023-09-30T07:16:40;55.23;;;21.60;;
20870;SDS011;10595;51.218;3.452;2023-09-30T07:19:06;42.57;;;20.47;;
20870;SDS011;10595;51.218;3.452;2023-09-30T07:21:32;55.33;;;22.23;;
20870;SDS011;10595;51.218;3.452;2023-09-30T07:23:58;50.00;;;21.70;;
20870;SDS011;10595;51.218;3.452;2023-09-30T07:26:24;43.43;;;19.93;;
20870;SDS011;10595;51.218;3.452;2023-09-30T07:28:50;47.43;;;21.83;;
20870;SDS011;10595;51.218;3.452;2023-09-30T07:31:19;55.57;;;24.63;;
20870;SDS011;10595;51.218;3.452;2023-09-30T07:33:45;49.77;;;23.37;;
20870;SDS011;10595;51.218;3.452;2023-09-30T07:36:13;46.27;;;21.30;;
20870;SDS011;10595;51.218;3.452;2023-09-30T07:38:39;45.13;;;21.53;;
20870;SDS011;10595;51.218;3.452;2023-09-30T07:41:05;40.93;;;22.07;;
20870;SDS011;10595;51.218;3.452;2023-09-30T07:43:34;39.27;;;21.27;;
20870;SDS011;10595;51.218;3.452;2023-09-30T07:46:04;43.10;;;21.60;;
20870;SDS011;10595;51.218;3.452;2023-09-30T07:48:30;40.93;;;22.33;;
20870;SDS011;10595;51.218;3.452;2023-09-30T07:50:57;46.57;;;22.07;;
20870;SDS011;10595;51.218;3.452;2023-09-30T07:53:23;42.87;;;21.23;;
20870;SDS011;10595;51.218;3.452;2023-09-30T07:55:49;47.40;;;23.07;;
20870;SDS011;10595;51.218;3.452;2023-09-30T07:58:15;42.70;;;22.63;;
20870;SDS011;10595;51.218;3.452;2023-09-30T08:00:41;40.77;;;21.37;;
20870;SDS011;10595;51.218;3.452;2023-09-30T08:03:08;39.33;;;20.83;;
20870;SDS011;10595;51.218;3.452;2023-09-30T08:05:34;41.80;;;20.70;;
20870;SDS011;10595;51.218;3.452;2023-09-30T08:08:01;44.60;;;22.30;;
20870;SDS011;10595;51.218;3.452;2023-09-30T08:10:27;37.17;;;21.17;;
20870;SDS011;10595;51.218;3.452;2023-09-30T08:12:54;38.60;;;20.37;;
20870;SDS011;10595;51.218;3.452;2023-09-30T08:15:22;38.93;;;19.20;;
20870;SDS011;10595;51.218;3.452;2023-09-30T08:17:49;33.87;;;19.70;;
20870;SDS011;10595;51.218;3.452;2023-09-30T08:20:15;34.67;;;19.20;;
20870;SDS011;10595;51.218;3.452;2023-09-30T08:22:41;34.10;;;18.33;;
20870;SDS011;10595;51.218;3.452;2023-09-30T08:25:07;35.50;;;18.17;;
20870;SDS011;10595;51.218;3.452;2023-09-30T08:27:33;35.57;;;19.40;;
20870;SDS011;10595;51.218;3.452;2023-09-30T08:30:00;36.17;;;20.40;;
20870;SDS011;10595;51.218;3.452;2023-09-30T08:32:31;34.33;;;19.60;;
20870;SDS011;10595;51.218;3.452;2023-09-30T08:34:57;37.53;;;20.57;;
20870;SDS011;10595;51.218;3.452;2023-09-30T08:37:23;37.03;;;20.20;;
20870;SDS011;10595;51.218;3.452;2023-09-30T08:39:49;39.23;;;21.37;;
20870;SDS011;10595;51.218;3.452;2023-09-30T08:42:15;36.10;;;20.83;;
20870;SDS011;10595;51.218;3.452;2023-09-30T08:44:43;33.47;;;19.30;;
20870;SDS011;10595;51.218;3.452;2023-09-30T08:47:10;35.30;;;21.47;;
20870;SDS011;10595;51.218;3.452;2023-09-30T08:49:40;38.03;;;21.13;;
20870;SDS011;10595;51.218;3.452;2023-09-30T08:52:06;33.80;;;19.57;;
20870;SDS011;10595;51.218;3.452;2023-09-30T08:54:34;35.23;;;20.13;;
20870;SDS011;10595;51.218;3.452;2023-09-30T08:57:00;34.73;;;20.30;;
20870;SDS011;10595;51.218;3.452;2023-09-30T08:59:29;32.13;;;19.67;;
20870;SDS011;10595;51.218;3.452;2023-09-30T09:01:56;37.13;;;20.33;;
20870;SDS011;10595;51.218;3.452;2023-09-30T09:04:22;33.50;;;20.20;;
20870;SDS011;10595;51.218;3.452;2023-09-30T09:06:48;32.60;;;19.40;;
20870;SDS011;10595;51.218;3.452;2023-09-30T09:09:14;35.63;;;20.17;;
20870;SDS011;10595;51.218;3.452;2023-09-30T09:11:44;35.73;;;19.40;;
20870;SDS011;10595;51.218;3.452;2023-09-30T09:14:11;38.07;;;20.23;;
20870;SDS011;10595;51.218;3.452;2023-09-30T09:16:47;35.40;;;20.33;;
20870;SDS011;10595;51.218;3.452;2023-09-30T09:19:17;31.97;;;19.30;;
20870;SDS011;10595;51.218;3.452;2023-09-30T09:21:54;32.30;;;18.77;;
20870;SDS011;10595;51.218;3.452;2023-09-30T09:24:34;34.47;;;20.10;;
20870;SDS011;10595;51.218;3.452;2023-09-30T09:27:07;33.80;;;19.90;;
20870;SDS011;10595;51.218;3.452;2023-09-30T09:29:34;36.00;;;20.70;;
20870;SDS011;10595;51.218;3.452;2023-09-30T09:32:08;36.37;;;20.60;;
20870;SDS011;10595;51.218;3.452;2023-09-30T09:34:34;33.87;;;20.30;;
20870;SDS011;10595;51.218;3.452;2023-09-30T09:37:01;33.83;;;17.90;;
20870;SDS011;10595;51.218;3.452;2023-09-30T09:39:37;33.70;;;17.50;;
20870;SDS011;10595;51.218;3.452;2023-09-30T09:42:03;32.07;;;17.97;;
20870;SDS011;10595;51.218;3.452;2023-09-30T09:44:31;30.10;;;16.77;;
20870;SDS011;10595;51.218;3.452;2023-09-30T09:46:59;32.30;;;17.00;;
20870;SDS011;10595;51.218;3.452;2023-09-30T09:49:28;27.17;;;15.70;;
20870;SDS011;10595;51.218;3.452;2023-09-30T09:51:54;36.33;;;17.47;;
20870;SDS011;10595;51.218;3.452;2023-09-30T09:54:21;25.67;;;16.37;;
20870;SDS011;10595;51.218;3.452;2023-09-30T09:56:48;26.20;;;15.83;;
20870;SDS011;10595;51.218;3.452;2023-09-30T09:59:15;24.53;;;15.30;;
20870;SDS011;10595;51.218;3.452;2023-09-30T10:01:41;23.87;;;14.77;;
20870;SDS011;10595;51.218;3.452;2023-09-30T10:04:07;30.17;;;15.37;;
20870;SDS011;10595;51.218;3.452;2023-09-30T10:06:34;29.27;;;14.57;;
20870;SDS011;10595;51.218;3.452;2023-09-30T10:09:08;24.47;;;13.60;;
20870;SDS011;10595;51.218;3.452;2023-09-30T10:11:35;22.90;;;13.53;;
20870;SDS011;10595;51.218;3.452;2023-09-30T10:14:01;27.03;;;12.30;;
20870;SDS011;10595;51.218;3.452;2023-09-30T10:19:07;22.77;;;12.43;;
20870;SDS011;10595;51.218;3.452;2023-09-30T10:21:33;22.23;;;12.33;;
20870;SDS011;10595;51.218;3.452;2023-09-30T10:24:27;22.40;;;11.37;;
20870;SDS011;10595;51.218;3.452;2023-09-30T10:26:45;25.00;;;11.07;;
20870;SDS011;10595;51.218;3.452;2023-09-30T10:29:11;20.13;;;10.20;;
20870;SDS011;10595;51.218;3.452;2023-09-30T10:31:50;21.17;;;9.90;;
20870;SDS011;10595;51.218;3.452;2023-09-30T10:34:17;19.87;;;9.57;;
20870;SDS011;10595;51.218;3.452;2023-09-30T10:36:43;21.23;;;9.43;;
20870;SDS011;10595;51.218;3.452;2023-09-30T10:39:10;19.97;;;8.97;;
20870;SDS011;10595;51.218;3.452;2023-09-30T10:46:51;22.47;;;8.43;;
20870;SDS011;10595;51.218;3.452;2023-09-30T10:51:58;19.93;;;7.20;;
20870;SDS011;10595;51.218;3.452;2023-09-30T10:54:27;16.47;;;7.30;;
20870;SDS011;10595;51.218;3.452;2023-09-30T10:56:53;19.20;;;7.87;;
20870;SDS011;10595;51.218;3.452;2023-09-30T10:59:20;18.70;;;8.07;;
20870;SDS011;10595;51.218;3.452;2023-09-30T11:01:47;13.57;;;7.00;;
20870;SDS011;10595;51.218;3.452;2023-09-30T11:04:13;13.67;;;6.50;;
20870;SDS011;10595;51.218;3.452;2023-09-30T11:06:41;14.23;;;5.47;;
20870;SDS011;10595;51.218;3.452;2023-09-30T11:09:07;14.30;;;6.13;;
20870;SDS011;10595;51.218;3.452;2023-09-30T11:11:41;14.90;;;7.10;;
20870;SDS011;10595;51.218;3.452;2023-09-30T11:16:47;18.70;;;6.53;;
20870;SDS011;10595;51.218;3.452;2023-09-30T11:19:13;14.13;;;4.50;;
20870;SDS011;10595;51.218;3.452;2023-09-30T11:21:45;14.63;;;4.63;;
20870;SDS011;10595;51.218;3.452;2023-09-30T11:24:13;14.13;;;5.40;;
20870;SDS011;10595;51.218;3.452;2023-09-30T11:26:39;11.83;;;4.30;;
20870;SDS011;10595;51.218;3.452;2023-09-30T11:29:12;15.83;;;4.83;;
20870;SDS011;10595;51.218;3.452;2023-09-30T11:31:42;14.23;;;4.43;;
20870;SDS011;10595;51.218;3.452;2023-09-30T11:34:08;18.27;;;4.57;;
20870;SDS011;10595;51.218;3.452;2023-09-30T11:36:37;14.30;;;5.20;;
20870;SDS011;10595;51.218;3.452;2023-09-30T11:39:03;12.33;;;5.07;;
20870;SDS011;10595;51.218;3.452;2023-09-30T11:41:35;15.17;;;5.20;;
20870;SDS011;10595;51.218;3.452;2023-09-30T11:44:08;15.83;;;4.80;;
20870;SDS011;10595;51.218;3.452;2023-09-30T11:46:48;15.40;;;5.93;;
20870;SDS011;10595;51.218;3.452;2023-09-30T11:49:23;15.60;;;5.07;;
20870;SDS011;10595;51.218;3.452;2023-09-30T11:51:49;17.20;;;6.17;;
20870;SDS011;10595;51.218;3.452;2023-09-30T11:54:16;12.30;;;5.30;;
20870;SDS011;10595;51.218;3.452;2023-09-30T11:56:42;17.90;;;5.60;;
20870;SDS011;10595;51.218;3.452;2023-09-30T11:59:08;18.53;;;5.47;;
20870;SDS011;10595;51.218;3.452;2023-09-30T12:01:36;14.03;;;5.03;;
20870;SDS011;10595;51.218;3.452;2023-09-30T12:04:02;17.70;;;5.73;;
20870;SDS011;10595;51.218;3.452;2023-09-30T12:06:28;15.63;;;5.13;;
20870;SDS011;10595;51.218;3.452;2023-09-30T12:08:54;13.00;;;4.33;;
20870;SDS011;10595;51.218;3.452;2023-09-30T12:11:20;10.70;;;3.73;;
20870;SDS011;10595;51.218;3.452;2023-09-30T12:13:49;15.73;;;3.87;;
20870;SDS011;10595;51.218;3.452;2023-09-30T12:16:15;10.57;;;3.60;;
20870;SDS011;10595;51.218;3.452;2023-09-30T12:18:41;14.97;;;4.30;;
20870;SDS011;10595;51.218;3.452;2023-09-30T12:21:09;15.37;;;4.23;;
20870;SDS011;10595;51.218;3.452;2023-09-30T12:23:35;12.27;;;3.53;;
20870;SDS011;10595;51.218;3.452;2023-09-30T12:26:02;15.40;;;4.57;;
20870;SDS011;10595;51.218;3.452;2023-09-30T12:28:30;12.87;;;3.97;;
20870;SDS011;10595;51.218;3.452;2023-09-30T12:30:57;9.70;;;3.30;;
20870;SDS011;10595;51.218;3.452;2023-09-30T12:33:23;12.47;;;3.37;;
20870;SDS011;10595;51.218;3.452;2023-09-30T12:35:49;13.17;;;3.93;;
20870;SDS011;10595;51.218;3.452;2023-09-30T12:38:16;12.83;;;4.00;;
20870;SDS011;10595;51.218;3.452;2023-09-30T12:40:42;14.53;;;3.57;;
20870;SDS011;10595;51.218;3.452;2023-09-30T12:43:09;11.63;;;3.77;;
20870;SDS011;10595;51.218;3.452;2023-09-30T12:45:35;11.67;;;3.60;;
20870;SDS011;10595;51.218;3.452;2023-09-30T12:48:03;17.10;;;3.87;;
20870;SDS011;10595;51.218;3.452;2023-09-30T12:50:29;11.13;;;3.43;;
20870;SDS011;10595;51.218;3.452;2023-09-30T12:52:55;10.50;;;3.27;;
20870;SDS011;10595;51.218;3.452;2023-09-30T12:55:21;14.83;;;3.40;;
20870;SDS011;10595;51.218;3.452;2023-09-30T12:57:47;11.60;;;3.20;;
20870;SDS011;10595;51.218;3.452;2023-09-30T13:00:13;14.00;;;3.20;;
20870;SDS011;10595;51.218;3.452;2023-09-30T13:02:40;10.47;;;3.63;;
20870;SDS011;10595;51.218;3.452;2023-09-30T13:05:07;10.30;;;3.63;;
20870;SDS011;10595;51.218;3.452;2023-09-30T13:07:33;9.43;;;3.30;;
20870;SDS011;10595;51.218;3.452;2023-09-30T13:09:59;11.50;;;3.97;;
20870;SDS011;10595;51.218;3.452;2023-09-30T13:12:30;11.50;;;3.37;;
20870;SDS011;10595;51.218;3.452;2023-09-30T13:14:58;13.17;;;3.70;;
20870;SDS011;10595;51.218;3.452;2023-09-30T13:17:24;12.40;;;3.60;;
20870;SDS011;10595;51.218;3.452;2023-09-30T13:19:50;11.13;;;3.17;;
20870;SDS011;10595;51.218;3.452;2023-09-30T13:22:19;8.57;;;3.17;;
20870;SDS011;10595;51.218;3.452;2023-09-30T13:24:46;8.60;;;3.23;;
20870;SDS011;10595;51.218;3.452;2023-09-30T13:27:12;13.83;;;4.00;;
20870;SDS011;10595;51.218;3.452;2023-09-30T13:29:40;8.60;;;3.10;;
20870;SDS011;10595;51.218;3.452;2023-09-30T13:32:08;11.40;;;2.67;;
20870;SDS011;10595;51.218;3.452;2023-09-30T13:34:34;14.13;;;3.40;;
20870;SDS011;10595;51.218;3.452;2023-09-30T13:37:00;13.47;;;3.70;;
20870;SDS011;10595;51.218;3.452;2023-09-30T13:39:26;11.93;;;3.50;;
20870;SDS011;10595;51.218;3.452;2023-09-30T13:41:54;14.57;;;3.20;;
20870;SDS011;10595;51.218;3.452;2023-09-30T13:44:20;11.40;;;3.03;;
20870;SDS011;10595;51.218;3.452;2023-09-30T13:46:46;8.30;;;2.87;;
20870;SDS011;10595;51.218;3.452;2023-09-30T13:49:13;10.23;;;3.33;;
20870;SDS011;10595;51.218;3.452;2023-09-30T13:51:39;8.80;;;2.73;;
20870;SDS011;10595;51.218;3.452;2023-09-30T13:54:05;10.80;;;3.00;;
20870;SDS011;10595;51.218;3.452;2023-09-30T13:56:34;11.50;;;3.23;;
20870;SDS011;10595;51.218;3.452;2023-09-30T13:59:00;12.07;;;2.80;;
20870;SDS011;10595;51.218;3.452;2023-09-30T14:01:26;9.47;;;2.70;;
20870;SDS011;10595;51.218;3.452;2023-09-30T14:03:52;10.57;;;2.57;;
20870;SDS011;10595;51.218;3.452;2023-09-30T14:06:20;9.47;;;2.60;;
20870;SDS011;10595;51.218;3.452;2023-09-30T14:08:47;8.50;;;2.80;;
20870;SDS011;10595;51.218;3.452;2023-09-30T14:11:13;9.50;;;2.70;;
20870;SDS011;10595;51.218;3.452;2023-09-30T14:13:39;9.13;;;2.90;;
20870;SDS011;10595;51.218;3.452;2023-09-30T14:16:06;16.30;;;3.33;;
20870;SDS011;10595;51.218;3.452;2023-09-30T14:18:32;12.03;;;2.97;;
20870;SDS011;10595;51.218;3.452;2023-09-30T14:20:59;12.20;;;3.43;;
20870;SDS011;10595;51.218;3.452;2023-09-30T14:23:26;12.30;;;3.30;;
20870;SDS011;10595;51.218;3.452;2023-09-30T14:25:53;9.73;;;2.93;;
20870;SDS011;10595;51.218;3.452;2023-09-30T14:28:24;9.63;;;2.63;;
20870;SDS011;10595;51.218;3.452;2023-09-30T14:30:50;10.87;;;3.20;;
20870;SDS011;10595;51.218;3.452;2023-09-30T14:33:16;12.40;;;2.97;;
20870;SDS011;10595;51.218;3.452;2023-09-30T14:35:44;13.30;;;3.03;;
20870;SDS011;10595;51.218;3.452;2023-09-30T14:38:10;10.30;;;2.70;;
20870;SDS011;10595;51.218;3.452;2023-09-30T14:40:39;13.90;;;3.13;;
20870;SDS011;10595;51.218;3.452;2023-09-30T14:43:06;9.63;;;2.63;;